Time;durP1;ratioP1;P1;durP2;ratioP2;P2;SDS_P1;SDS_P2;PMS_P1;PMS_P2;Temp;Humidity;BMP_temperature;BMP_pressure;BME280_temperature;BME280_humidity;BME280_pressure;Samples;Min_cycle;Max_cycle;Signal;HPM_P1;HPM_P2
2022/03/28 00:01:56;;;;;;;4.30;2.65;;;;;;;13.17;100.00;101040.19;7399923;19;20014;-51
2022/03/28 00:04:23;;;;;;;4.80;1.75;;;;;;;13.16;100.00;101038.66;7397829;19;20485;-51
2022/03/28 00:06:49;;;;;;;9.55;2.28;;;;;;;13.22;100.00;101030.41;7402701;19;20006;-51
2022/03/28 00:09:15;;;;;;;6.43;2.28;;;;;;;13.28;100.00;101032.13;7398066;19;20494;-51
2022/03/28 00:11:42;;;;;;;8.73;2.17;;;;;;;13.25;100.00;101024.66;7400550;19;20006;-51
2022/03/28 00:14:08;;;;;;;8.18;2.47;;;;;;;13.26;100.00;101015.03;7396718;19;20542;-50
2022/03/28 00:16:35;;;;;;;5.63;2.63;;;;;;;13.23;100.00;101018.75;7396803;19;20019;-52
2022/03/28 00:19:01;;;;;;;4.38;2.38;;;;;;;13.20;100.00;101016.88;7398435;19;20018;-51
2022/03/28 00:21:28;;;;;;;4.75;2.75;;;;;;;13.18;100.00;101013.78;7399870;19;20010;-51
2022/03/28 00:23:54;;;;;;;4.82;2.78;;;;;;;13.17;100.00;101001.03;7397433;19;20024;-50
2022/03/28 00:26:20;;;;;;;3.00;2.38;;;;;;;13.11;100.00;101008.47;7397365;19;20027;-51
2022/03/28 00:28:47;;;;;;;7.72;2.10;;;;;;;13.14;100.00;101018.75;7397587;19;20083;-51
2022/03/28 00:31:13;;;;;;;3.75;1.95;;;;;;;13.14;100.00;101013.16;7398213;19;20006;-51
2022/03/28 00:33:41;;;;;;;4.57;2.25;;;;;;;13.08;100.00;101008.66;7394525;19;20454;-51
2022/03/28 00:36:07;;;;;;;2.92;2.03;;;;;;;13.04;100.00;101005.97;7400077;19;20011;-51
2022/03/28 00:38:34;;;;;;;1.42;1.33;;;;;;;13.04;100.00;101000.38;7395992;19;20022;-51
2022/03/28 00:41:00;;;;;;;3.85;2.00;;;;;;;13.05;100.00;101010.34;7398069;19;20011;-51
2022/03/28 00:43:26;;;;;;;6.32;2.33;;;;;;;13.02;100.00;101005.66;7397435;19;20024;-50
2022/03/28 00:45:52;;;;;;;5.63;2.25;;;;;;;13.00;100.00;100996.94;7397583;19;20063;-50
2022/03/28 00:48:19;;;;;;;4.28;1.95;;;;;;;13.04;100.00;101003.16;7396932;19;20023;-50
2022/03/28 00:50:45;;;;;;;4.90;2.13;;;;;;;13.00;100.00;101002.53;7396931;19;20027;-50
2022/03/28 00:53:13;;;;;;;3.50;1.63;;;;;;;13.01;100.00;101003.31;7394966;19;20021;-51
2022/03/28 00:55:41;;;;;;;2.85;2.10;;;;;;;13.01;100.00;100997.72;7396686;19;20021;-50
2022/03/28 00:58:07;;;;;;;5.05;2.42;;;;;;;12.98;100.00;100993.06;7395386;19;20010;-51
2022/03/28 01:00:33;;;;;;;7.03;2.30;;;;;;;13.07;100.00;100984.72;7398731;19;20011;-51
2022/03/28 01:03:00;;;;;;;5.72;2.05;;;;;;;13.04;100.00;100988.41;7396013;19;20011;-52
2022/03/28 01:05:27;;;;;;;8.32;2.88;;;;;;;13.07;100.00;100982.69;7396525;19;20020;-51
2022/03/28 01:07:55;;;;;;;5.13;2.67;;;;;;;13.01;100.00;100973.34;7396502;19;20014;-51
2022/03/28 01:10:22;;;;;;;5.47;2.58;;;;;;;13.03;100.00;100975.66;7394631;19;20014;-51
2022/03/28 01:12:48;;;;;;;4.35;2.15;;;;;;;13.03;100.00;100979.25;7399942;19;20513;-51
2022/03/28 01:15:15;;;;;;;3.10;1.92;;;;;;;12.98;100.00;100977.06;7395211;19;20019;-52
2022/03/28 01:20:27;;;;;;;15.23;2.80;;;;;;;12.93;100.00;100969.28;7393552;19;20041;-51
2022/03/28 01:22:54;;;;;;;5.75;2.38;;;;;;;12.91;100.00;100961.38;7395313;19;20336;-51
2022/03/28 01:25:25;;;;;;;6.05;2.10;;;;;;;12.93;100.00;100963.69;7395494;19;20011;-51
2022/03/28 01:27:55;;;;;;;;;;;;;;;12.89;100.00;100957.47;7393766;19;20010;-51
2022/03/28 01:30:22;;;;;;;6.50;2.38;;;;;;;12.88;100.00;100961.53;7393506;19;19937;-52
2022/03/28 01:32:50;;;;;;;4.10;2.13;;;;;;;12.92;100.00;100956.56;7399336;19;20011;-51
2022/03/28 01:35:38;;;;;;;5.72;1.73;;;;;;;12.95;100.00;100950.00;7394762;19;20007;-52
2022/03/28 01:38:07;;;;;;;5.20;1.98;;;;;;;12.90;100.00;100953.44;7393739;19;20017;-51
2022/03/28 01:40:38;;;;;;;5.60;1.85;;;;;;;12.90;100.00;100953.44;7395253;19;20021;-51
2022/03/28 01:43:04;;;;;;;;;;;;;;;12.90;100.00;100942.25;7394665;19;20011;-51
2022/03/28 01:45:30;;;;;;;4.70;1.50;;;;;;;12.91;100.00;100943.81;7391791;19;19938;-51
2022/03/28 01:47:57;;;;;;;6.13;2.45;;;;;;;12.85;100.00;100945.66;7393261;19;20014;-52
2022/03/28 01:50:23;;;;;;;4.07;2.03;;;;;;;12.81;100.00;100945.84;7394226;19;20352;-51
2022/03/28 01:52:49;;;;;;;2.13;1.80;;;;;;;12.78;100.00;100940.38;7398507;19;20018;-52
2022/03/28 01:55:16;;;;;;;5.05;1.88;;;;;;;12.75;100.00;100936.53;7394651;19;20477;-51
2022/03/28 01:57:43;;;;;;;7.93;2.28;;;;;;;12.75;100.00;100936.53;7396049;19;20028;-51
2022/03/28 02:00:15;;;;;;;3.92;2.42;;;;;;;12.71;100.00;100935.09;7392082;19;20010;-51
2022/03/28 02:02:43;;;;;;;2.40;1.42;;;;;;;12.72;100.00;100931.06;7398191;19;20022;-52
2022/03/28 02:05:12;;;;;;;7.95;2.42;;;;;;;12.72;100.00;100920.66;7394921;19;20019;-51
2022/03/28 02:07:40;;;;;;;9.23;2.30;;;;;;;12.76;100.00;100931.69;7394283;19;20505;-52
2022/03/28 02:10:08;;;;;;;8.25;2.45;;;;;;;12.73;100.00;100919.41;7392881;19;20010;-51
2022/03/28 02:12:35;;;;;;;2.65;1.63;;;;;;;12.68;100.00;100913.66;7397622;19;20018;-51
2022/03/28 02:15:04;;;;;;;6.90;2.92;;;;;;;12.70;100.00;100911.19;7393570;19;20111;-51
2022/03/28 02:17:31;;;;;;;4.18;2.08;;;;;;;12.73;100.00;100916.59;7393380;19;20022;-52
2022/03/28 02:19:57;;;;;;;3.60;2.28;;;;;;;12.79;100.00;100914.00;7389734;19;20010;-51
2022/03/28 02:22:24;;;;;;;4.60;2.22;;;;;;;12.77;100.00;100905.28;7397416;19;20074;-51
2022/03/28 02:24:50;;;;;;;3.45;1.73;;;;;;;12.77;100.00;100906.06;7394626;19;20376;-51
2022/03/28 02:27:17;;;;;;;2.83;2.22;;;;;;;12.74;100.00;100898.63;7393599;19;20046;-51
2022/03/28 02:29:43;;;;;;;1.75;1.55;;;;;;;12.76;100.00;100903.72;7393847;19;20021;-51
2022/03/28 02:32:09;;;;;;;1.67;1.38;;;;;;;12.73;100.00;100899.09;7396642;19;20014;-51
2022/03/28 02:34:35;;;;;;;5.63;1.95;;;;;;;12.71;100.00;100896.72;7391291;19;20503;-51
2022/03/28 02:37:02;;;;;;;4.80;2.80;;;;;;;12.73;100.00;100882.31;7393270;19;20011;-51
2022/03/28 02:39:28;;;;;;;2.40;1.80;;;;;;;12.68;100.00;100885.72;7393327;19;20014;-51
2022/03/28 02:41:55;;;;;;;5.70;1.67;;;;;;;12.68;100.00;100882.94;7397479;19;20035;-51
2022/03/28 02:44:21;;;;;;;7.85;3.40;;;;;;;12.70;100.00;100877.66;7393598;19;20014;-51
2022/03/28 02:46:47;;;;;;;2.10;1.83;;;;;;;12.67;100.00;100879.34;7394201;19;20006;-51
2022/03/28 02:49:14;;;;;;;5.03;1.83;;;;;;;12.66;100.00;100865.84;7393709;19;20014;-51
2022/03/28 02:51:40;;;;;;;5.90;2.50;;;;;;;12.65;100.00;100869.88;7395049;19;20023;-51
2022/03/28 02:54:07;;;;;;;5.45;2.15;;;;;;;12.61;100.00;100863.66;7392275;19;20015;-52
2022/03/28 02:56:33;;;;;;;8.27;3.00;;;;;;;12.55;100.00;100865.53;7390664;19;20018;-51
2022/03/28 02:58:59;;;;;;;4.88;1.92;;;;;;;12.53;100.00;100856.84;7389553;19;20095;-52
2022/03/28 03:01:25;;;;;;;4.18;2.47;;;;;;;12.55;100.00;100857.16;7402536;19;20060;-52
2022/03/28 03:03:51;;;;;;;2.83;2.03;;;;;;;12.52;100.00;100844.88;7400615;19;20014;-51
2022/03/28 03:06:19;;;;;;;4.50;1.90;;;;;;;12.58;100.00;100851.38;7399306;19;20014;-51
2022/03/28 03:08:45;;;;;;;5.68;2.90;;;;;;;12.63;100.00;100838.81;7399099;19;20328;-52
2022/03/28 03:11:11;;;;;;;8.15;1.98;;;;;;;12.62;100.00;100843.66;7399660;19;20011;-51
2022/03/28 03:13:37;;;;;;;12.13;2.90;;;;;;;12.63;100.00;100838.81;7400032;19;20015;-51
2022/03/28 03:16:04;;;;;;;5.35;1.58;;;;;;;12.60;100.00;100834.19;7398070;19;20021;-51
2022/03/28 03:18:31;;;;;;;9.93;2.35;;;;;;;12.52;100.00;100833.69;7397999;19;20014;-51
2022/03/28 03:20:58;;;;;;;9.48;1.90;;;;;;;12.49;100.00;100834.66;7399903;19;20014;-51
2022/03/28 03:23:25;;;;;;;12.00;2.53;;;;;;;12.47;100.00;100834.34;7399869;19;20010;-51
2022/03/28 03:25:51;;;;;;;3.67;1.90;;;;;;;12.51;100.00;100828.59;7399015;19;20018;-51
2022/03/28 03:28:20;;;;;;;7.05;2.05;;;;;;;12.54;100.00;100827.66;7399859;19;20014;-51
2022/03/28 03:30:48;;;;;;;13.77;3.05;;;;;;;12.49;100.00;100828.28;7400003;19;20014;-51
2022/03/28 03:33:14;;;;;;;5.90;2.17;;;;;;;12.50;100.00;100818.63;7397397;19;20010;-51
2022/03/28 03:35:41;;;;;;;4.65;2.33;;;;;;;12.48;100.00;100826.72;7398322;19;20474;-51
2022/03/28 03:38:07;;;;;;;3.28;2.00;;;;;;;12.46;100.00;100818.03;7397671;19;20014;-51
2022/03/28 03:40:33;;;;;;;7.70;2.95;;;;;;;12.47;100.00;100814.78;7399298;19;20014;-51
2022/03/28 03:43:00;;;;;;;4.00;3.17;;;;;;;12.42;100.00;100809.81;7399451;19;20392;-51
2022/03/28 03:45:26;;;;;;;2.60;1.42;;;;;;;12.41;100.00;100810.28;7397529;19;20011;-51
2022/03/28 03:47:52;;;;;;;3.53;2.13;;;;;;;12.42;100.00;100806.22;7398711;19;20083;-51
2022/03/28 03:50:18;;;;;;;2.40;1.40;;;;;;;12.34;100.00;100802.19;7397451;19;20392;-51
2022/03/28 03:52:44;;;;;;;3.97;1.33;;;;;;;12.24;100.00;100797.81;7401338;19;20018;-51
2022/03/28 03:55:11;;;;;;;6.10;2.20;;;;;;;12.08;100.00;100798.91;7399317;19;20049;-51
2022/03/28 03:57:37;;;;;;;5.15;2.03;;;;;;;11.93;100.00;100795.91;7398258;19;20011;-51
2022/03/28 04:00:05;;;;;;;6.45;2.58;;;;;;;11.88;100.00;100795.75;7398192;19;20007;-51
2022/03/28 04:02:41;;;;;;;1.98;1.13;;;;;;;11.76;100.00;100793.88;7402604;19;20015;-51
2022/03/28 04:05:07;;;;;;;7.45;1.50;;;;;;;11.67;100.00;100789.03;7396076;19;20010;-51
2022/03/28 04:07:34;;;;;;;4.20;2.00;;;;;;;11.55;100.00;100784.31;7396613;19;20018;-51
2022/03/28 04:10:03;;;;;;;3.42;1.83;;;;;;;11.43;100.00;100788.00;7396906;19;20011;-51
2022/03/28 04:12:29;;;;;;;4.68;1.80;;;;;;;11.33;100.00;100791.97;7402020;19;20042;-51
2022/03/28 04:14:59;;;;;;;2.08;1.50;;;;;;;11.26;100.00;100787.44;7396391;19;20030;-51
2022/03/28 04:17:29;;;;;;;1.88;1.65;;;;;;;11.27;100.00;100779.84;7395569;19;20343;-51
2022/03/28 04:19:56;;;;;;;3.80;2.10;;;;;;;11.27;100.00;100789.00;7395742;19;20023;-51
2022/03/28 04:22:22;;;;;;;4.97;1.95;;;;;;;11.28;100.00;100779.38;7401453;19;20374;-51
2022/03/28 04:24:49;;;;;;;0.70;0.38;;;;;;;11.20;100.00;100771.75;7397877;19;20007;-51
2022/03/28 04:27:15;;;;;;;3.88;1.10;;;;;;;11.14;100.00;100771.59;7396184;19;20074;-51
2022/03/28 04:29:42;;;;;;;2.03;0.98;;;;;;;11.03;100.00;100764.88;7396812;19;20014;-51
2022/03/28 04:32:08;;;;;;;1.52;1.42;;;;;;;10.92;100.00;100758.91;7400011;19;20023;-51
2022/03/28 04:34:35;;;;;;;2.80;1.25;;;;;;;10.86;100.00;100767.09;7396650;19;20052;-51
2022/03/28 04:37:01;;;;;;;1.95;1.33;;;;;;;10.71;100.00;100768.06;7396227;19;20010;-51
2022/03/28 04:39:27;;;;;;;2.92;1.90;;;;;;;10.55;100.00;100769.03;7397114;19;20018;-51
2022/03/28 04:41:53;;;;;;;2.92;1.13;;;;;;;10.47;100.00;100768.53;7398929;19;20162;-51
2022/03/28 04:44:19;;;;;;;1.33;1.02;;;;;;;10.40;100.00;100763.22;7397438;19;20015;-51
2022/03/28 04:46:45;;;;;;;2.03;0.93;;;;;;;10.39;100.00;100758.91;7396674;19;20373;-51
2022/03/28 04:49:14;;;;;;;3.13;1.48;;;;;;;10.30;100.00;100756.03;7394886;19;20006;-51
2022/03/28 04:51:41;;;;;;;3.28;1.70;;;;;;;10.18;100.00;100762.41;7398790;19;20023;-51
2022/03/28 04:54:08;;;;;;;2.42;1.25;;;;;;;10.08;100.00;100765.53;7396270;19;20021;-51
2022/03/28 04:56:34;;;;;;;1.15;1.08;;;;;;;10.06;100.00;100757.66;7396912;19;20018;-51
2022/03/28 04:59:02;;;;;;;0.93;0.85;;;;;;;10.00;100.00;100764.22;7394962;19;20040;-51
2022/03/28 05:01:28;;;;;;;3.95;1.08;;;;;;;9.90;100.00;100753.00;7397935;19;20041;-51
2022/03/28 05:03:54;;;;;;;1.05;1.05;;;;;;;9.82;100.00;100756.47;7396625;19;20054;-51
2022/03/28 05:06:20;;;;;;;4.07;1.45;;;;;;;9.80;100.00;100751.38;7394456;19;20018;-51
2022/03/28 05:08:46;;;;;;;3.75;1.48;;;;;;;9.70;100.00;100751.72;7395093;19;20015;-51
2022/03/28 05:11:13;;;;;;;13.27;2.67;;;;;;;9.62;100.00;100753.16;7397582;19;20455;-51
2022/03/28 05:13:39;;;;;;;4.63;1.65;;;;;;;9.69;100.00;100756.50;7397035;19;20011;-50
2022/03/28 05:16:05;;;;;;;0.75;0.75;;;;;;;9.76;100.00;100755.50;7396098;19;20021;-50
2022/03/28 05:18:31;;;;;;;2.08;1.88;;;;;;;9.79;100.00;100754.56;7395128;19;20062;-50
2022/03/28 05:20:57;;;;;;;1.85;1.38;;;;;;;9.80;100.00;100758.94;7396575;19;20002;-51
2022/03/28 05:23:23;;;;;;;1.63;1.52;;;;;;;9.73;100.00;100748.81;7394168;19;20070;-51
2022/03/28 05:25:50;;;;;;;2.90;1.83;;;;;;;9.68;100.00;100745.84;7392413;19;20010;-51
2022/03/28 05:28:16;;;;;;;2.38;1.80;;;;;;;9.63;100.00;100746.38;7395166;19;20007;-51
2022/03/28 05:30:42;;;;;;;2.50;1.88;;;;;;;9.56;100.00;100744.63;7395363;19;20062;-51
2022/03/28 05:33:08;;;;;;;1.83;1.73;;;;;;;9.53;100.00;100739.94;7396196;19;20018;-51
2022/03/28 05:35:35;;;;;;;11.27;2.55;;;;;;;9.49;100.00;100742.06;7395241;19;20051;-51
2022/03/28 05:38:01;;;;;;;3.78;2.05;;;;;;;9.55;100.00;100736.72;7394749;19;20017;-50
2022/03/28 05:40:27;;;;;;;7.57;2.80;;;;;;;9.58;100.00;100744.16;7395687;19;20014;-50
2022/03/28 05:42:54;;;;;;;2.15;1.25;;;;;;;9.54;100.00;100735.16;7399936;19;20037;-51
2022/03/28 05:45:20;;;;;;;1.63;1.00;;;;;;;9.48;100.00;100734.97;7390999;19;20014;-51
2022/03/28 05:47:46;;;;;;;4.20;1.63;;;;;;;9.42;100.00;100733.19;7394880;19;20011;-51
2022/03/28 05:50:12;;;;;;;4.82;2.55;;;;;;;9.41;100.00;100731.63;7394423;19;20010;-51
2022/03/28 05:52:39;;;;;;;6.07;1.80;;;;;;;9.40;100.00;100727.31;7398588;19;20021;-50
2022/03/28 05:55:06;;;;;;;3.60;1.25;;;;;;;9.46;100.00;100731.06;7394112;19;20015;-50
2022/03/28 05:57:33;;;;;;;6.28;2.15;;;;;;;9.53;100.00;100728.06;7394278;19;20016;-50
2022/03/28 05:59:59;;;;;;;2.00;0.82;;;;;;;9.59;100.00;100729.06;7393073;19;20014;-50
2022/03/28 06:02:25;;;;;;;1.73;1.63;;;;;;;9.70;100.00;100726.69;7397693;19;20022;-50
2022/03/28 06:04:51;;;;;;;1.67;1.35;;;;;;;9.78;100.00;100728.00;7397219;19;20014;-50
2022/03/28 06:07:17;;;;;;;1.10;0.88;;;;;;;9.85;100.00;100727.78;7394431;19;20015;-50
2022/03/28 06:09:44;;;;;;;6.25;1.83;;;;;;;9.96;100.00;100722.63;7394468;19;20466;-50
2022/03/28 06:12:10;;;;;;;1.50;1.40;;;;;;;10.02;100.00;100726.38;7397196;19;20018;-50
2022/03/28 06:14:36;;;;;;;6.35;1.75;;;;;;;10.06;100.00;100720.69;7398309;19;20011;-51
2022/03/28 06:17:02;;;;;;;2.33;1.77;;;;;;;10.14;100.00;100717.22;7395267;19;20030;-50
2022/03/28 06:19:28;;;;;;;2.90;1.95;;;;;;;10.20;100.00;100715.41;7398708;19;20025;-50
2022/03/28 06:21:55;;;;;;;2.72;1.52;;;;;;;10.24;100.00;100710.53;7395406;19;20099;-51
2022/03/28 06:24:21;;;;;;;7.03;1.95;;;;;;;10.29;100.00;100709.91;7393485;19;20324;-51
2022/03/28 06:26:47;;;;;;;2.67;1.58;;;;;;;10.32;100.00;100706.25;7395918;19;20538;-50
2022/03/28 06:29:13;;;;;;;3.40;2.58;;;;;;;10.38;100.00;100707.19;7396334;19;20014;-50
2022/03/28 06:31:39;;;;;;;4.85;1.77;;;;;;;10.48;100.00;100702.50;7396243;19;20394;-50
2022/03/28 06:34:05;;;;;;;9.70;1.75;;;;;;;10.51;100.00;100702.34;7400457;19;20042;-51
2022/03/28 06:36:31;;;;;;;3.13;1.35;;;;;;;10.56;100.00;100698.97;7402331;19;20014;-51
2022/03/28 06:38:58;;;;;;;7.25;2.15;;;;;;;10.60;100.00;100702.41;7401480;19;20014;-51
2022/03/28 06:41:24;;;;;;;2.53;2.30;;;;;;;10.61;100.00;100706.72;7402948;19;20022;-51
2022/03/28 06:43:50;;;;;;;1.88;1.23;;;;;;;10.68;100.00;100693.78;7403614;19;20037;-51
2022/03/28 06:46:16;;;;;;;2.65;1.10;;;;;;;10.68;100.00;100700.91;7403804;19;20014;-51
2022/03/28 06:48:43;;;;;;;2.88;2.00;;;;;;;10.63;100.00;100695.91;7404183;19;20264;-51
2022/03/28 06:51:09;;;;;;;3.13;2.28;;;;;;;10.56;100.00;100698.97;7403185;19;20015;-51
2022/03/28 06:53:35;;;;;;;4.13;2.17;;;;;;;10.50;100.00;100695.22;7400951;19;20406;-51
2022/03/28 06:56:02;;;;;;;2.08;1.23;;;;;;;10.48;100.00;100703.25;7400381;19;20363;-51
2022/03/28 06:58:28;;;;;;;9.38;2.15;;;;;;;10.46;100.00;100694.56;7400379;19;20010;-51
2022/03/28 07:00:54;;;;;;;5.85;1.85;;;;;;;10.51;100.00;100696.78;7401437;19;20007;-51
2022/03/28 07:03:20;;;;;;;2.60;1.92;;;;;;;10.57;100.00;100689.38;7403522;19;20014;-52
2022/03/28 07:05:46;;;;;;;2.05;1.88;;;;;;;10.65;100.00;100699.00;7399706;19;20048;-51
2022/03/28 07:08:15;;;;;;;2.10;2.00;;;;;;;10.75;100.00;100694.28;7400900;19;20014;-51
2022/03/28 07:10:42;;;;;;;3.97;2.45;;;;;;;10.86;100.00;100693.88;7400454;19;20014;-52
2022/03/28 07:13:09;;;;;;;7.25;1.25;;;;;;;10.98;100.00;100690.22;7401383;19;20011;-51
2022/03/28 07:15:35;;;;;;;2.45;1.67;;;;;;;11.06;100.00;100691.50;7398593;19;20021;-52
2022/03/28 07:18:06;;;;;;;5.70;1.85;;;;;;;11.17;100.00;100689.06;7396692;19;20404;-52
2022/03/28 07:20:33;;;;;;;3.47;2.13;;;;;;;11.22;100.00;100694.00;7399157;19;20011;-52
2022/03/28 07:23:00;;;;;;;4.25;2.22;;;;;;;11.32;100.00;100692.81;7399475;19;20084;-51
2022/03/28 07:25:28;;;;;;;3.10;1.92;;;;;;;11.45;100.00;100690.69;7399697;19;20014;-52
2022/03/28 07:27:55;;;;;;;6.20;3.08;;;;;;;11.51;100.00;100686.06;7399294;19;20007;-51
2022/03/28 07:30:22;;;;;;;3.88;1.85;;;;;;;11.64;100.00;100683.91;7399714;19;20006;-51
2022/03/28 07:32:51;;;;;;;2.30;1.88;;;;;;;11.73;100.00;100695.13;7402472;19;20026;-52
2022/03/28 07:35:20;;;;;;;9.45;2.92;;;;;;;11.76;100.00;100683.00;7398866;19;20030;-51
2022/03/28 07:37:46;;;;;;;9.82;2.28;;;;;;;11.86;100.00;100686.59;7395847;19;20082;-51
2022/03/28 07:40:14;;;;;;;3.60;2.22;;;;;;;11.91;100.00;100678.38;7399176;19;20044;-52
2022/03/28 07:42:43;;;;;;;7.07;1.50;;;;;;;11.94;100.00;100680.25;7402867;19;20016;-51
2022/03/28 07:45:10;;;;;;;2.60;1.67;;;;;;;12.00;100.00;100675.59;7396705;19;20011;-52
2022/03/28 07:47:37;;;;;;;4.00;1.67;;;;;;;12.04;100.00;100672.66;7399356;19;20014;-51
2022/03/28 07:50:04;;;;;;;3.22;2.67;;;;;;;12.02;100.00;100673.09;7398415;19;20410;-52
2022/03/28 07:52:31;;;;;;;4.38;1.73;;;;;;;12.03;100.00;100671.88;7402146;19;20006;-51
2022/03/28 07:54:58;;;;;;;3.13;1.23;;;;;;;11.98;100.00;100664.09;7396648;19;20023;-52
2022/03/28 07:57:24;;;;;;;9.75;2.05;;;;;;;11.96;100.00;100663.81;7396003;19;20474;-52
2022/03/28 07:59:51;;;;;;;4.30;2.83;;;;;;;12.01;100.00;100665.97;7399257;19;20018;-51
2022/03/28 08:02:17;;;;;;;4.18;1.88;;;;;;;12.07;100.00;100666.91;7400600;19;20014;-51
2022/03/28 08:04:45;;;;;;;9.52;3.00;;;;;;;12.10;100.00;100671.56;7402001;19;20017;-52
2022/03/28 08:07:12;;;;;;;8.35;2.50;;;;;;;12.14;100.00;100672.19;7398638;19;20086;-52
2022/03/28 08:09:39;;;;;;;4.15;2.55;;;;;;;12.10;100.00;100674.34;7398290;19;20018;-52
2022/03/28 08:12:06;;;;;;;2.75;1.85;;;;;;;12.09;100.00;100677.59;7400808;19;20017;-52
2022/03/28 08:14:33;;;;;;;6.68;1.50;;;;;;;12.16;100.00;100672.50;7396987;19;20022;-52
2022/03/28 08:17:00;;;;;;;4.75;2.13;;;;;;;12.12;100.00;100669.09;7397191;19;20027;-51
2022/03/28 08:19:26;;;;;;;6.22;3.80;;;;;;;12.17;100.00;100662.84;7400434;19;20344;-51
2022/03/28 08:21:53;;;;;;;6.25;2.65;;;;;;;12.16;100.00;100661.31;7400178;19;20482;-52
2022/03/28 08:24:19;;;;;;;2.15;1.83;;;;;;;12.15;100.00;100662.53;7400172;19;20035;-52
2022/03/28 08:26:46;;;;;;;3.88;2.58;;;;;;;12.26;100.00;100658.53;7398047;19;20089;-51
2022/03/28 08:29:13;;;;;;;4.03;2.55;;;;;;;12.32;100.00;100656.66;7397892;19;20022;-51
2022/03/28 08:31:41;;;;;;;4.35;2.08;;;;;;;12.34;100.00;100656.94;7399844;19;20010;-52
2022/03/28 08:34:08;;;;;;;4.25;1.60;;;;;;;12.56;100.00;100657.53;7396170;19;20072;-52
2022/03/28 08:36:36;;;;;;;2.63;2.05;;;;;;;12.61;100.00;100659.66;7396773;19;20066;-51
2022/03/28 08:39:03;;;;;;;4.88;2.08;;;;;;;12.60;100.00;100649.75;7396249;19;20070;-51
2022/03/28 08:41:32;;;;;;;5.20;2.88;;;;;;;12.61;100.00;100654.88;7399836;19;20015;-51
2022/03/28 08:43:58;;;;;;;3.72;2.47;;;;;;;12.65;100.00;100652.69;7397513;19;20007;-51
2022/03/28 08:46:27;;;;;;;2.72;2.15;;;;;;;12.71;100.00;100650.03;7398809;19;20014;-51
2022/03/28 08:48:56;;;;;;;4.22;2.22;;;;;;;12.87;100.00;100646.84;7397877;19;20022;-51
2022/03/28 08:51:22;;;;;;;6.13;2.10;;;;;;;13.03;100.00;100642.91;7400558;19;20010;-51
2022/03/28 08:53:48;;;;;;;2.88;1.60;;;;;;;13.14;100.00;100646.00;7395844;19;20077;-52
2022/03/28 08:56:14;;;;;;;4.40;2.22;;;;;;;13.24;100.00;100642.66;7399738;19;20033;-51
2022/03/28 08:58:41;;;;;;;6.47;2.65;;;;;;;13.29;100.00;100635.66;7394024;19;20470;-51
2022/03/28 09:01:08;;;;;;;5.43;2.00;;;;;;;13.27;100.00;100636.13;7395793;19;20018;-52
2022/03/28 09:03:37;;;;;;;7.43;2.47;;;;;;;13.39;100.00;100634.34;7396529;19;20040;-52
2022/03/28 09:06:28;;;;;;;6.20;2.28;;;;;;;13.39;100.00;100637.91;7395583;19;20048;-52
2022/03/28 09:08:54;;;;;;;3.53;2.20;;;;;;;13.43;100.00;100632.91;7396607;19;20363;-52
2022/03/28 09:11:21;;;;;;;6.10;2.72;;;;;;;13.60;100.00;100633.25;7396382;19;20038;-52
2022/03/28 09:13:47;;;;;;;3.45;2.17;;;;;;;13.65;100.00;100636.19;7394392;19;20086;-52
2022/03/28 09:16:18;;;;;;;6.45;3.03;;;;;;;13.74;100.00;100618.53;7394618;19;20010;-52
2022/03/28 09:18:45;;;;;;;7.25;2.80;;;;;;;13.80;100.00;100622.22;7394875;19;20347;-51
2022/03/28 09:21:14;;;;;;;9.45;2.22;;;;;;;13.89;100.00;100621.38;7396154;19;20434;-51
2022/03/28 09:23:45;;;;;;;7.05;2.72;;;;;;;14.03;100.00;100612.25;7395471;19;20471;-51
2022/03/28 09:26:20;;;;;;;;;;;;;;;14.02;100.00;100613.47;7396148;19;20007;-51
2022/03/28 09:28:53;;;;;;;8.18;1.80;;;;;;;14.04;100.00;100624.97;7395574;19;19970;-52
2022/03/28 09:31:31;;;;;;;10.18;2.83;;;;;;;14.02;100.00;100617.06;7395647;19;20011;-52
2022/03/28 09:34:10;;;;;;;5.78;2.13;;;;;;;13.98;100.00;100615.69;7395686;19;20025;-52
2022/03/28 09:36:41;;;;;;;8.10;2.15;;;;;;;14.18;100.00;100615.81;7394533;19;20011;-52
2022/03/28 09:39:10;;;;;;;5.38;2.13;;;;;;;14.31;100.00;100617.09;7395165;19;20024;-52
2022/03/28 09:41:37;;;;;;;12.63;3.17;;;;;;;14.46;100.00;100605.91;7397327;19;20027;-52
2022/03/28 09:44:04;;;;;;;7.38;4.40;;;;;;;14.49;100.00;100609.78;7395316;19;20081;-51
2022/03/28 09:46:32;;;;;;;3.95;3.25;;;;;;;14.75;100.00;100608.66;7394443;19;20481;-52
2022/03/28 09:48:59;;;;;;;7.18;3.35;;;;;;;14.86;100.00;100610.88;7392876;19;20054;-51
2022/03/28 09:51:30;;;;;;;6.90;2.80;;;;;;;15.13;100.00;100608.50;7397948;19;20367;-52
2022/03/28 09:53:58;;;;;;;12.02;3.50;;;;;;;15.20;100.00;100599.66;7393486;19;20066;-52
2022/03/28 09:56:25;;;;;;;6.03;2.63;;;;;;;15.46;100.00;100596.97;7398802;19;20007;-51
2022/03/28 09:59:01;;;;;;;9.93;3.15;;;;;;;15.65;100.00;100600.25;7393457;19;20042;-52
2022/03/28 10:01:30;;;;;;;7.60;3.20;;;;;;;15.73;100.00;100598.56;7395433;19;20445;-52
2022/03/28 10:04:08;;;;;;;15.93;2.92;;;;;;;15.60;100.00;100593.31;7394559;19;20383;-52
2022/03/28 10:06:37;;;;;;;7.32;3.25;;;;;;;15.72;100.00;100583.00;7394428;19;20404;-51
2022/03/28 10:09:05;;;;;;;6.90;3.33;;;;;;;15.88;100.00;100580.34;7392117;19;20030;-52
2022/03/28 10:11:32;;;;;;;12.60;3.72;;;;;;;16.18;100.00;100583.72;7396321;19;20010;-52
2022/03/28 10:13:59;;;;;;;6.60;3.40;;;;;;;16.32;100.00;100582.06;7393986;19;20015;-52
2022/03/28 10:16:26;;;;;;;12.70;4.07;;;;;;;16.25;100.00;100582.50;7394346;19;20021;-52
2022/03/28 10:18:56;;;;;;;9.38;4.60;;;;;;;16.22;100.00;100578.63;7392527;19;20047;-51
2022/03/28 10:21:31;;;;;;;11.50;3.83;;;;;;;16.34;100.00;100579.53;7395427;19;20078;-52
2022/03/28 10:24:22;;;;;;;7.30;3.17;;;;;;;16.25;100.00;100569.22;7394418;19;20010;-51
2022/03/28 10:26:53;;;;;;;11.73;2.45;;;;;;;16.13;100.00;100570.41;7393601;19;20014;-52
2022/03/28 10:29:22;;;;;;;4.20;1.35;;;;;;;16.08;100.00;100565.50;7394656;19;20018;-51
2022/03/28 10:31:52;;;;;;;10.60;3.72;;;;;;;16.11;100.00;100564.50;7396608;19;20466;-52
2022/03/28 10:34:44;;;;;;;10.32;3.50;;;;;;;16.07;100.00;100555.50;7393510;19;20007;-52
2022/03/28 10:37:31;;;;;;;17.92;4.57;;;;;;;16.11;100.00;100553.28;7392606;19;20347;-51
2022/03/28 10:40:21;;;;;;;7.32;2.00;;;;;;;16.00;100.00;100555.97;7392942;19;20018;-51
2022/03/28 10:42:52;;;;;;;10.10;3.03;;;;;;;15.89;100.00;100544.63;7397023;19;20161;-52
2022/03/28 10:45:19;;;;;;;;;;;;;;;15.76;100.00;100549.84;7391612;19;20022;-51
2022/03/28 10:47:53;;;;;;;7.18;2.00;;;;;;;15.63;100.00;100553.03;7393466;19;19923;-51
2022/03/28 10:50:24;;;;;;;7.10;2.42;;;;;;;15.65;100.00;100544.09;7392273;19;20024;-51
2022/03/28 10:53:10;;;;;;;4.20;2.30;;;;;;;15.77;100.00;100542.94;7396415;19;20014;-51
2022/03/28 10:55:53;;;;;;;10.75;4.13;;;;;;;15.86;100.00;100542.78;7393287;19;20022;-51
2022/03/28 10:58:30;;;;;;;11.50;4.20;;;;;;;15.95;100.00;100537.00;7392137;19;20018;-51
2022/03/28 11:01:05;;;;;;;6.25;3.72;;;;;;;16.00;100.00;100527.88;7393084;19;20006;-51
2022/03/28 11:03:36;;;;;;;9.00;3.00;;;;;;;16.08;100.00;100528.19;7392406;19;20014;-52
2022/03/28 11:06:03;;;;;;;;;;;;;;;16.18;100.00;100521.88;7393329;19;20021;-51
2022/03/28 11:08:40;;;;;;;6.72;3.13;;;;;;;16.35;100.00;100524.84;7392537;19;19919;-51
2022/03/28 11:11:33;;;;;;;8.05;3.50;;;;;;;16.38;100.00;100519.00;7393220;19;20014;-51
2022/03/28 11:14:04;;;;;;;9.57;2.53;;;;;;;16.49;100.00;100509.88;7391375;19;20026;-52
2022/03/28 11:16:40;;;;;;;;;;;;;;;16.58;100.00;100510.47;7392811;19;20371;-51
2022/03/28 11:19:25;;;;;;;5.32;2.38;;;;;;;16.44;100.00;100505.75;7389934;19;20260;-51
2022/03/28 11:22:04;;;;;;;4.45;2.17;;;;;;;16.48;100.00;100505.53;7398810;19;20030;-51
2022/03/28 11:24:56;;;;;;;4.88;1.70;;;;;;;16.48;100.00;100503.47;7398077;19;20017;-51
2022/03/28 11:27:24;;;;;;;5.30;3.05;;;;;;;16.47;100.00;100499.13;7399261;19;20011;-52